Text Box: All records at near 07:00 local time
Kleivo 1 weather for Jul 2008
Month no. 20
Obs.
Da.
Temp. Dew Point Precip. Wind
Speed
Wind gusts Cloud cover Press. Humidity Wind dir. Sunny OPT
01.07.2008 13,1   0,0 0,0   1 997,3 76,0 0,0   70,0 %
02.07.2008 11,7   0,0 0,0   1 996,6 86,0 0,0   67,5 %
03.07.2008 17,5   0,0 0,0   10 994,6 65,0 0,0 1 97,5 %
04.07.2008 22,3   0,0 0,0   10 995,3 45,0 0,0 1 100,0 %
05.07.2008 16,8   0,0 0,0   10 996,6 72,0 0,0 1 95,0 %
06.07.2008 15,8   0,0 0,0   10 985,8 87,0 0,0 1 95,0 %
07.07.2008 13,1   0,0 0,0   10 978,7 83,0 0,0 1 92,5 %
08.07.2008 15,5   0,0 0,0   1 984,1 59,0 0,0   72,5 %
09.07.2008 11,4   0,0 0,0   1 987,5 91,0 0,0   67,5 %
10.07.2008 12,4   0,0 0,0   10 987,5 94,0 0,0 1 90,0 %
11.07.2008 10,9   0,0 20,0   10 999,3 80,0 0,0 1 77,5 %
12.07.2008 13,3   0,0 0,0   1 980,4 86,0 0,0   70,0 %
13.07.2008 14,3   0,0 0,0   1 984,8 88,0 0,0   70,0 %
14.07.2008 12,7   9,7 0,0   1 992,9 77,0 0,0   62,5 %
15.07.2008 13,5   0,0 0,0   1 990,5 95,0 0,0   70,0 %
16.07.2008 15,3   0,0 0,0   1 987,5 71,0 0,0   72,5 %
17.07.2008 10,9   0,0 0,0   1 987,8 93,0 0,0   67,5 %
18.07.2008 9,9   0,0 0,0   1 986,5 92,0 0,0   65,0 %
19.07.2008 12,6   0,0 0,0   1 982,0 77,0 0,0   70,0 %
20.07.2008 13,9   0,0 0,0   1 980,4 86,0 0,0   70,0 %
21.07.2008 13,8   0,0 0,0   1 989,8 94,0 0,0   70,0 %
22.07.2008 13,9   0,0 0,0   1 996,6 84,0 0,0   70,0 %
23.07.2008 13,0   0,0 0,0   1 1004,1 92,0 0,0   70,0 %
24.07.2008 13,5   0,0 0,0   1 1006,4 94,0 0,0   70,0 %
25.07.2008 15,6   0,0 0,0   1 1005,1 78,0 0,0   72,5 %
26.07.2008 22,3   0,0 0,0   10 1001,4 54,0 0,0 1 100,0 %
27.07.2008 15,4   0,0 0,0   10 1003,7 90,0 0,0 1 95,0 %
28.07.2008 15,6   0,0 0,0   10 1002,7 92,0 0,0 1 95,0 %
29.07.2008 20,6   0,0 0,0   10 1000,0 66,0 0,0 1 100,0 %
30.07.2008 23,1   0,0 0,0   10 998,6 52,0 0,0 1 100,0 %
31.07.2008 17,6   0,0 0,0   10 1001,9 86,0 0,0   97,5 %
Avrg/Sum 14,9   9,7 0,6   4,8 993,1 80,2 0,0 12 80,1 %